Time;durP1;ratioP1;P1;durP2;ratioP2;P2;SDS_P1;SDS_P2;PMS_P1;PMS_P2;Temp;Humidity;BMP_temperature;BMP_pressure;BME280_temperature;BME280_humidity;BME280_pressure;Samples;Min_cycle;Max_cycle;Signal;HPM_P1;HPM_P2
2022/05/19 00:01:57;;;;;;;7.50;6.27;;;;;;;19.64;73.43;98590.94;4128496;28;20663;-94
2022/05/19 00:04:01;;;;;;;8.20;6.30;;;;;;;19.60;72.80;98594.03;4114247;28;21237;-93
2022/05/19 00:06:06;;;;;;;6.60;6.00;;;;;;;19.56;73.67;98593.50;4128814;28;20814;-91
2022/05/19 00:08:10;;;;;;;6.50;5.90;;;;;;;19.54;72.82;98597.28;4112081;28;21133;-91
2022/05/19 00:10:14;;;;;;;7.90;6.20;;;;;;;19.49;72.67;98603.00;4109974;28;20735;-91
2022/05/19 00:12:22;;;;;;;8.30;6.40;;;;;;;19.42;73.82;98607.25;4142243;28;20638;-91
2022/05/19 00:14:25;;;;;;;8.57;6.97;;;;;;;19.41;74.36;98602.09;4109494;28;20627;-92
2022/05/19 00:16:29;;;;;;;8.27;6.77;;;;;;;19.36;75.38;98601.69;4140100;28;20681;-92
2022/05/19 00:18:32;;;;;;;8.13;7.33;;;;;;;19.33;75.23;98603.78;4140341;28;20766;-91
2022/05/19 00:20:35;;;;;;;8.27;7.50;;;;;;;19.26;75.35;98597.41;4111087;28;20661;-91
2022/05/19 00:22:39;;;;;;;9.67;7.27;;;;;;;19.20;75.94;98598.00;4104546;28;21073;-91
2022/05/19 00:24:42;;;;;;;9.40;8.60;;;;;;;19.16;76.39;98599.28;4109770;28;20644;-90
2022/05/19 00:26:49;;;;;;;8.93;8.03;;;;;;;19.05;76.21;98602.09;4122666;28;20673;-90
2022/05/19 00:28:54;;;;;;;8.73;7.80;;;;;;;18.99;76.98;98597.38;4107795;28;20679;-90
2022/05/19 00:30:57;;;;;;;9.37;7.80;;;;;;;18.92;77.66;98598.91;4125029;28;20648;-89
2022/05/19 00:33:00;;;;;;;12.63;6.93;;;;;;;18.87;77.49;98584.44;4127865;28;20679;-89
2022/05/19 00:35:04;;;;;;;9.37;8.20;;;;;;;18.79;78.36;98585.16;4144735;28;20634;-89
2022/05/19 00:37:13;;;;;;;8.40;7.60;;;;;;;18.73;78.00;98585.72;4143269;28;20656;-89
2022/05/19 00:39:16;;;;;;;9.63;8.23;;;;;;;18.71;78.60;98584.22;4114477;28;21288;-89
2022/05/19 00:41:20;;;;;;;10.33;7.60;;;;;;;18.67;77.88;98573.09;4142374;28;20643;-89
2022/05/19 00:43:36;;;;;;;8.60;7.80;;;;;;;18.66;78.17;98579.34;4130402;28;20636;-88
2022/05/19 00:45:51;;;;;;;8.30;7.50;;;;;;;18.62;78.29;98570.03;4140274;28;20702;-88
2022/05/19 00:47:58;;;;;;;8.30;7.50;;;;;;;18.63;78.25;98574.34;4127352;28;20631;-88
2022/05/19 00:50:03;;;;;;;8.10;7.40;;;;;;;18.64;77.96;98572.53;4112656;28;20659;-88
2022/05/19 00:52:10;;;;;;;8.60;7.70;;;;;;;18.63;78.02;98562.97;4116469;28;20650;-88
2022/05/19 00:54:16;;;;;;;7.90;7.20;;;;;;;18.59;78.07;98565.03;4110968;28;20643;-88
2022/05/19 00:56:22;;;;;;;7.83;6.80;;;;;;;18.55;78.36;98562.81;4132249;28;20683;-88
2022/05/19 00:58:31;;;;;;;9.00;7.83;;;;;;;18.53;78.46;98557.66;4127647;28;20649;-88
2022/05/19 01:00:35;;;;;;;7.90;7.10;;;;;;;18.51;78.76;98558.81;4110080;28;20703;-88
2022/05/19 01:02:41;;;;;;;8.43;7.50;;;;;;;18.46;78.11;98564.50;4109064;28;20640;-88
2022/05/19 01:04:47;;;;;;;9.20;8.33;;;;;;;18.43;78.10;98554.22;4113099;28;20663;-88
2022/05/19 01:06:52;;;;;;;8.93;8.13;;;;;;;18.34;78.76;98556.03;4113581;28;20646;-88
2022/05/19 01:08:58;;;;;;;10.53;8.80;;;;;;;18.30;78.54;98552.84;4110591;28;20727;-88
2022/05/19 01:11:02;;;;;;;9.40;8.53;;;;;;;18.25;78.89;98544.53;4125371;28;20643;-88
2022/05/19 01:13:06;;;;;;;9.73;8.73;;;;;;;18.18;79.38;98548.69;4127678;28;20646;-88
2022/05/19 01:15:10;;;;;;;8.80;8.00;;;;;;;18.11;79.57;98546.72;4133018;28;20642;-88
2022/05/19 01:17:13;;;;;;;9.60;8.60;;;;;;;18.09;80.17;98549.50;4143228;28;20638;-88
2022/05/19 01:19:24;;;;;;;10.47;9.50;;;;;;;18.08;80.47;98549.63;4141403;28;20644;-88
2022/05/19 01:21:29;;;;;;;10.70;8.97;;;;;;;18.05;79.53;98539.34;4126742;28;20635;-88
2022/05/19 01:23:39;;;;;;;10.10;8.50;;;;;;;18.02;80.26;98539.63;4123399;28;20733;-88
2022/05/19 01:25:48;;;;;;;12.97;9.30;;;;;;;17.98;79.91;98546.16;4142005;28;20638;-88
2022/05/19 01:27:53;;;;;;;11.60;9.33;;;;;;;17.96;79.55;98542.84;4121985;28;20642;-88
2022/05/19 01:29:56;;;;;;;9.90;8.90;;;;;;;17.94;79.62;98545.59;4110559;28;20660;-88
2022/05/19 01:32:01;;;;;;;12.13;8.83;;;;;;;17.91;80.49;98545.06;4127257;28;21106;-88
2022/05/19 01:34:07;;;;;;;11.40;9.57;;;;;;;17.89;80.96;98552.28;4107171;28;20665;-88
2022/05/19 01:36:11;;;;;;;13.70;8.93;;;;;;;17.88;80.54;98540.06;4113642;28;20672;-88
2022/05/19 01:38:18;;;;;;;9.27;8.13;;;;;;;17.89;80.55;98540.88;4130653;28;20701;-88
2022/05/19 01:40:45;;;;;;;9.67;8.73;;;;;;;17.84;81.16;98546.56;4143183;28;20611;-88
2022/05/19 01:42:53;;;;;;;10.90;9.27;;;;;;;17.84;80.12;98543.13;4122440;28;20667;-88
2022/05/19 01:45:02;;;;;;;10.27;9.27;;;;;;;17.81;80.00;98538.09;4104619;28;20727;-88
2022/05/19 01:47:09;;;;;;;9.63;8.70;;;;;;;17.79;80.21;98535.59;4108802;28;20666;-88
2022/05/19 01:49:18;;;;;;;10.30;9.03;;;;;;;17.78;81.07;98530.47;4115923;28;20662;-88
2022/05/19 01:51:27;;;;;;;8.40;7.60;;;;;;;17.79;79.40;98534.78;4141379;28;20634;-88
2022/05/19 01:53:35;;;;;;;8.20;7.40;;;;;;;17.82;78.90;98534.50;4127412;28;20651;-88
2022/05/19 01:55:45;;;;;;;8.43;7.50;;;;;;;17.81;79.16;98527.56;4124639;28;20635;-87
2022/05/19 01:57:52;;;;;;;8.27;7.47;;;;;;;17.78;78.02;98533.94;4109481;28;21183;-88
2022/05/19 02:00:04;;;;;;;8.20;7.40;;;;;;;17.77;79.29;98532.28;4124177;28;20718;-88
2022/05/19 02:02:21;;;;;;;8.50;7.70;;;;;;;17.76;79.32;98527.97;4125635;28;20666;-88
2022/05/19 02:04:40;;;;;;;11.07;7.50;;;;;;;17.78;78.54;98522.56;4125492;28;20739;-88
2022/05/19 02:06:47;;;;;;;12.47;8.30;;;;;;;17.76;78.15;98521.88;4127186;28;20686;-88
2022/05/19 02:08:53;;;;;;;10.90;8.17;;;;;;;17.72;77.85;98526.56;4127566;28;20638;-88
2022/05/19 02:11:00;;;;;;;8.50;7.50;;;;;;;17.67;78.77;98528.78;4127405;28;20713;-88
2022/05/19 02:13:05;;;;;;;8.43;7.63;;;;;;;17.60;79.32;98517.09;4108550;28;20762;-88
2022/05/19 02:15:13;;;;;;;9.87;7.40;;;;;;;17.54;80.17;98519.47;4109952;28;21265;-88
2022/05/19 02:17:20;;;;;;;9.83;8.20;;;;;;;17.52;78.83;98529.34;4128898;28;20626;-88
2022/05/19 02:19:26;;;;;;;9.63;8.50;;;;;;;17.49;80.28;98522.50;4126886;28;20638;-88
2022/05/19 02:21:30;;;;;;;9.43;8.30;;;;;;;17.48;79.97;98520.00;4128525;28;20650;-88
2022/05/19 02:23:34;;;;;;;11.33;9.27;;;;;;;17.44;79.88;98515.16;4106058;28;20698;-88
2022/05/19 02:25:46;;;;;;;8.37;7.67;;;;;;;17.40;80.18;98517.22;4126942;28;20643;-88
2022/05/19 02:27:53;;;;;;;9.60;8.60;;;;;;;17.37;80.15;98519.31;4113008;28;20644;-88
2022/05/19 02:29:56;;;;;;;10.97;7.90;;;;;;;17.35;79.19;98516.81;4130002;28;20718;-88
2022/05/19 02:32:01;;;;;;;8.40;7.50;;;;;;;17.32;81.11;98521.50;4110445;28;20652;-88
2022/05/19 02:34:04;;;;;;;8.83;7.90;;;;;;;17.27;80.61;98521.91;4128956;28;20661;-88
2022/05/19 02:36:09;;;;;;;9.33;8.30;;;;;;;17.21;81.81;98516.34;4128491;28;21331;-87
2022/05/19 02:38:12;;;;;;;8.83;7.93;;;;;;;17.13;81.89;98513.53;4124242;28;20706;-88
2022/05/19 02:40:18;;;;;;;10.50;8.00;;;;;;;17.11;79.90;98516.31;4110403;28;20659;-88
2022/05/19 02:42:21;;;;;;;9.40;8.30;;;;;;;17.07;81.27;98509.63;4129029;28;20615;-88
2022/05/19 02:44:24;;;;;;;9.57;8.47;;;;;;;17.06;81.91;98515.03;4122796;28;20645;-88
2022/05/19 02:46:27;;;;;;;10.30;8.57;;;;;;;17.03;80.75;98518.78;4126810;28;20650;-87
2022/05/19 02:48:32;;;;;;;8.50;7.70;;;;;;;16.99;79.76;98506.81;4125917;28;20674;-88
2022/05/19 02:50:36;;;;;;;8.47;7.67;;;;;;;16.99;81.20;98512.09;4124660;28;20643;-88
2022/05/19 02:52:40;;;;;;;8.40;7.60;;;;;;;16.97;80.98;98510.56;4110672;28;20668;-88
2022/05/19 02:54:43;;;;;;;7.90;7.10;;;;;;;16.97;81.27;98513.19;4110522;28;20679;-88
2022/05/19 02:56:47;;;;;;;9.40;8.40;;;;;;;16.98;80.12;98506.13;4111304;28;20704;-88
2022/05/19 02:58:50;;;;;;;8.07;7.27;;;;;;;16.98;80.22;98504.31;4111442;28;20636;-88
2022/05/19 03:00:53;;;;;;;7.70;7.00;;;;;;;16.98;79.99;98507.78;4112255;28;20674;-88
2022/05/19 03:02:57;;;;;;;8.50;7.53;;;;;;;16.98;80.84;98509.59;4124013;28;21225;-88
2022/05/19 03:05:03;;;;;;;7.90;6.80;;;;;;;16.96;82.18;98511.53;4137570;28;20730;-87
2022/05/19 03:07:06;;;;;;;8.47;7.60;;;;;;;16.92;80.43;98501.41;4122924;28;20643;-88
2022/05/19 03:09:10;;;;;;;7.53;6.77;;;;;;;16.90;82.00;98500.69;4126974;28;20726;-88
2022/05/19 03:11:13;;;;;;;9.40;6.93;;;;;;;16.91;80.29;98491.81;4110321;28;20648;-88
2022/05/19 03:13:18;;;;;;;8.70;7.80;;;;;;;16.91;79.93;98497.91;4112164;28;20663;-88
2022/05/19 03:15:22;;;;;;;7.80;7.00;;;;;;;16.88;80.20;98492.91;4125130;28;20651;-88
2022/05/19 03:17:25;;;;;;;7.77;6.77;;;;;;;16.87;80.35;98507.06;4127509;28;20627;-88
2022/05/19 03:19:28;;;;;;;9.77;7.23;;;;;;;16.87;80.17;98501.78;4141633;28;20619;-88
2022/05/19 03:21:33;;;;;;;8.63;6.80;;;;;;;16.89;80.74;98515.66;4130261;28;20631;-88
2022/05/19 03:23:36;;;;;;;7.40;6.70;;;;;;;16.89;80.42;98513.03;4124500;28;20639;-88
2022/05/19 03:25:40;;;;;;;8.13;6.60;;;;;;;16.88;80.91;98519.25;4125906;28;20635;-87
2022/05/19 03:27:43;;;;;;;7.00;6.30;;;;;;;16.86;80.00;98513.28;4111037;28;20629;-87
2022/05/19 03:29:46;;;;;;;7.37;6.77;;;;;;;16.85;80.82;98519.53;4108677;28;20651;-88
2022/05/19 03:31:50;;;;;;;7.40;6.70;;;;;;;16.84;80.83;98520.50;4122774;28;20641;-88
2022/05/19 03:33:53;;;;;;;8.80;7.13;;;;;;;16.81;82.01;98527.81;4124954;28;20689;-88
2022/05/19 03:35:57;;;;;;;7.90;7.10;;;;;;;16.79;80.85;98529.75;4125507;28;20746;-88
2022/05/19 03:38:01;;;;;;;8.50;7.20;;;;;;;16.80;80.71;98531.44;4142850;28;21247;-87
2022/05/19 03:40:06;;;;;;;7.43;6.63;;;;;;;16.82;80.56;98530.31;4123950;28;20669;-88
2022/05/19 03:42:10;;;;;;;7.40;6.70;;;;;;;16.82;79.59;98532.97;4144187;28;20685;-87
2022/05/19 03:44:13;;;;;;;8.13;6.73;;;;;;;16.78;78.84;98534.22;4130007;28;20726;-87
2022/05/19 03:46:16;;;;;;;8.80;6.80;;;;;;;16.76;80.72;98527.41;4139446;28;20654;-88
2022/05/19 03:48:20;;;;;;;8.40;6.90;;;;;;;16.76;79.75;98525.59;4123303;28;20645;-88
2022/05/19 03:50:23;;;;;;;8.37;7.57;;;;;;;16.73;81.64;98530.28;4129243;28;20990;-88
2022/05/19 03:52:28;;;;;;;7.43;6.73;;;;;;;16.67;81.79;98523.78;4108801;28;20632;-88
2022/05/19 03:54:40;;;;;;;7.53;6.80;;;;;;;16.64;80.43;98525.81;4109043;28;20628;-88
2022/05/19 03:56:43;;;;;;;8.10;7.20;;;;;;;16.57;81.13;98529.94;4113939;28;20643;-87
2022/05/19 03:58:47;;;;;;;7.80;7.10;;;;;;;16.53;82.06;98524.09;4128371;28;20626;-88
2022/05/19 04:00:51;;;;;;;9.03;7.43;;;;;;;16.50;80.61;98532.25;4107262;28;20764;-87
2022/05/19 04:02:54;;;;;;;7.27;6.57;;;;;;;16.49;82.60;98527.13;4111573;28;20666;-87
2022/05/19 04:05:02;;;;;;;8.00;7.20;;;;;;;16.49;81.40;98528.91;4122720;28;20658;-87
2022/05/19 04:07:08;;;;;;;8.70;6.63;;;;;;;16.50;81.83;98530.59;4108805;28;20723;-87
2022/05/19 04:09:11;;;;;;;7.50;6.80;;;;;;;16.54;80.13;98544.19;4112713;28;20640;-88
2022/05/19 04:11:15;;;;;;;7.80;7.00;;;;;;;16.57;79.95;98535.22;4107124;28;20828;-88
2022/05/19 04:13:19;;;;;;;7.80;7.00;;;;;;;16.62;81.50;98539.09;4123396;28;20682;-88
2022/05/19 04:15:22;;;;;;;8.00;7.30;;;;;;;16.64;81.69;98542.47;4123045;28;21226;-87
2022/05/19 04:17:25;;;;;;;8.90;8.00;;;;;;;16.66;81.45;98543.16;4131980;28;20635;-88
2022/05/19 04:19:28;;;;;;;9.10;7.57;;;;;;;16.67;81.41;98541.34;4127581;28;21216;-87
2022/05/19 04:21:32;;;;;;;9.27;8.30;;;;;;;16.67;81.26;98546.63;4126278;28;20647;-88
2022/05/19 04:23:35;;;;;;;8.80;7.77;;;;;;;16.67;81.38;98547.47;4107396;28;20712;-87
2022/05/19 04:25:39;;;;;;;8.77;7.87;;;;;;;16.68;81.06;98538.59;4123096;28;21066;-88
2022/05/19 04:27:43;;;;;;;9.40;8.50;;;;;;;16.67;82.24;98543.97;4123480;28;21289;-88
2022/05/19 04:29:49;;;;;;;8.90;8.00;;;;;;;16.67;80.29;98547.47;4108482;28;20687;-88
2022/05/19 04:31:53;;;;;;;13.43;8.20;;;;;;;16.68;81.19;98546.50;4124094;28;20631;-87
2022/05/19 04:33:56;;;;;;;10.60;9.03;;;;;;;16.72;81.83;98542.63;4108260;28;20673;-88
2022/05/19 04:36:00;;;;;;;9.57;8.57;;;;;;;16.76;80.06;98545.84;4103217;28;21215;-88
2022/05/19 04:38:07;;;;;;;12.20;8.60;;;;;;;16.80;80.44;98547.25;4107852;28;20726;-88
2022/05/19 04:40:12;;;;;;;10.53;8.00;;;;;;;16.85;80.92;98550.31;4123028;28;20619;-88
2022/05/19 04:42:15;;;;;;;9.83;8.17;;;;;;;16.89;81.44;98549.91;4105822;28;20668;-88
2022/05/19 04:44:20;;;;;;;9.20;7.57;;;;;;;16.93;80.20;98548.69;4108435;28;20627;-88
2022/05/19 04:46:23;;;;;;;9.90;8.10;;;;;;;16.97;80.70;98557.16;4128644;28;20734;-87
2022/05/19 04:48:27;;;;;;;10.97;7.90;;;;;;;17.00;80.31;98560.38;4127452;28;20685;-87
2022/05/19 04:50:30;;;;;;;8.90;7.80;;;;;;;17.05;80.57;98558.19;4107367;28;20640;-87
2022/05/19 04:52:34;;;;;;;9.77;7.67;;;;;;;17.12;80.17;98562.78;4127792;28;20727;-88
2022/05/19 04:54:37;;;;;;;9.30;7.70;;;;;;;17.18;79.71;98570.13;4127119;28;20652;-87
2022/05/19 04:56:40;;;;;;;8.90;7.80;;;;;;;17.24;80.38;98569.63;4123305;28;20657;-88
2022/05/19 04:58:49;;;;;;;8.00;7.30;;;;;;;17.31;79.23;98577.88;4106118;28;21240;-87
2022/05/19 05:00:54;;;;;;;10.73;7.60;;;;;;;17.38;79.38;98573.72;4111923;28;21004;-87
2022/05/19 05:02:57;;;;;;;9.87;8.27;;;;;;;17.38;77.63;98566.66;4138674;28;20667;-87
2022/05/19 05:05:00;;;;;;;9.97;7.70;;;;;;;17.47;78.88;98571.94;4122782;28;20638;-87
2022/05/19 05:07:04;;;;;;;8.93;7.90;;;;;;;17.51;79.06;98568.09;4129116;28;20645;-87
2022/05/19 05:09:10;;;;;;;8.73;7.73;;;;;;;17.58;80.25;98574.47;4109543;28;20727;-87
2022/05/19 05:11:13;;;;;;;10.23;8.20;;;;;;;17.65;79.51;98565.03;4125123;28;20666;-87
2022/05/19 05:13:17;;;;;;;11.87;7.50;;;;;;;17.74;79.35;98569.50;4109552;28;20767;-87
2022/05/19 05:15:20;;;;;;;9.10;8.20;;;;;;;17.83;80.43;98566.03;4121907;28;21228;-88
2022/05/19 05:17:25;;;;;;;7.00;6.30;;;;;;;17.93;79.99;98567.69;4130316;28;21333;-88
2022/05/19 05:19:28;;;;;;;8.80;7.40;;;;;;;18.04;78.79;98564.09;4129678;28;21222;-88
2022/05/19 05:21:31;;;;;;;6.37;5.43;;;;;;;18.17;77.74;98564.69;4124039;28;21225;-88
2022/05/19 05:23:35;;;;;;;7.43;5.40;;;;;;;18.30;77.35;98583.72;4144992;28;21049;-90
2022/05/19 05:25:39;;;;;;;5.90;4.50;;;;;;;18.41;74.26;98580.94;4130642;28;20690;-88
2022/05/19 05:27:43;;;;;;;5.43;4.93;;;;;;;18.58;72.69;98583.66;4112479;28;20651;-87
2022/05/19 05:29:46;;;;;;;6.73;4.70;;;;;;;18.75;72.24;98589.06;4111440;28;20648;-88
2022/05/19 05:31:49;;;;;;;10.40;5.30;;;;;;;18.94;71.96;98589.84;4128894;28;20653;-88
2022/05/19 05:33:53;;;;;;;6.33;5.50;;;;;;;19.12;71.18;98595.25;4126949;28;20663;-88
2022/05/19 05:35:57;;;;;;;7.20;5.50;;;;;;;19.29;70.95;98594.47;4108242;28;20645;-86
2022/05/19 05:38:00;;;;;;;5.20;4.70;;;;;;;19.53;69.39;98596.44;4116310;28;20631;-86
2022/05/19 05:40:04;;;;;;;6.57;5.30;;;;;;;19.81;69.91;98595.44;4133613;28;20705;-87
2022/05/19 05:42:09;;;;;;;7.07;4.57;;;;;;;20.08;68.88;98592.78;4113871;28;20643;-88
2022/05/19 05:44:13;;;;;;;7.70;6.03;;;;;;;20.35;70.35;98588.22;4126003;28;21202;-88
2022/05/19 05:46:19;;;;;;;5.20;4.20;;;;;;;20.60;66.66;98593.56;4126350;28;20639;-88
2022/05/19 05:48:23;;;;;;;5.23;4.73;;;;;;;20.77;67.18;98602.50;4132816;28;21190;-88
2022/05/19 05:50:33;;;;;;;4.90;4.40;;;;;;;20.95;66.39;98598.81;4129898;28;20646;-88
2022/05/19 05:52:36;;;;;;;4.70;4.30;;;;;;;21.08;64.30;98592.09;4132672;28;21370;-89
2022/05/19 05:54:42;;;;;;;5.60;4.80;;;;;;;21.20;64.49;98587.34;4123911;28;21245;-88
2022/05/19 05:56:45;;;;;;;5.70;4.57;;;;;;;21.32;65.26;98590.41;4129915;28;20639;-88
2022/05/19 05:58:48;;;;;;;7.07;4.50;;;;;;;21.54;64.78;98594.34;4139848;28;21041;-88
2022/05/19 06:00:55;;;;;;;5.50;4.63;;;;;;;21.77;65.07;98594.44;4128980;28;20730;-90
2022/05/19 06:02:59;;;;;;;5.73;4.57;;;;;;;21.97;63.85;98592.31;4112367;28;20651;-89
2022/05/19 06:05:02;;;;;;;4.40;4.00;;;;;;;22.20;63.68;98596.03;4114693;28;20636;-89
2022/05/19 06:07:07;;;;;;;5.13;4.63;;;;;;;22.38;64.06;98598.38;4131322;28;21010;-90
2022/05/19 06:09:10;;;;;;;5.60;5.00;;;;;;;22.53;62.85;98591.41;4115427;28;21232;-89
2022/05/19 06:11:16;;;;;;;9.73;6.57;;;;;;;22.69;66.24;98596.72;4114057;28;20671;-90
2022/05/19 06:13:19;;;;;;;8.03;6.77;;;;;;;22.81;66.80;98601.53;4128442;28;21206;-88
2022/05/19 06:15:23;;;;;;;7.77;6.97;;;;;;;22.97;67.38;98598.91;4128629;28;21126;-88
2022/05/19 06:17:26;;;;;;;8.03;6.57;;;;;;;23.12;66.16;98604.34;4141945;28;20638;-88
2022/05/19 06:19:31;;;;;;;11.37;6.40;;;;;;;23.26;64.79;98609.81;4113021;28;20639;-88
2022/05/19 06:21:36;;;;;;;6.50;5.80;;;;;;;23.29;63.44;98598.81;4127978;28;21096;-88
2022/05/19 06:23:41;;;;;;;6.00;5.10;;;;;;;23.47;61.85;98599.41;4109526;28;20644;-88
2022/05/19 06:25:45;;;;;;;5.40;4.87;;;;;;;23.67;62.90;98606.84;4111557;28;20664;-89
2022/05/19 06:27:51;;;;;;;7.70;5.53;;;;;;;23.88;61.88;98602.59;4100179;28;20637;-88
2022/05/19 06:29:54;;;;;;;6.37;5.50;;;;;;;24.14;64.27;98610.28;4125098;28;20631;-88
2022/05/19 06:32:00;;;;;;;8.47;6.20;;;;;;;24.30;62.68;98609.16;4112283;28;20643;-88
2022/05/19 06:34:04;;;;;;;7.20;5.97;;;;;;;24.43;62.47;98617.44;4128477;28;20742;-88
2022/05/19 06:36:09;;;;;;;6.33;5.23;;;;;;;24.64;62.49;98614.91;4106414;28;20705;-89
2022/05/19 06:38:13;;;;;;;9.43;5.03;;;;;;;24.90;60.26;98616.22;4126884;28;20734;-91
2022/05/19 06:40:18;;;;;;;6.90;5.20;;;;;;;25.12;60.00;98619.88;4113475;28;20704;-90
2022/05/19 06:42:21;;;;;;;8.83;4.70;;;;;;;25.31;61.35;98612.97;4127482;28;20678;-93
2022/05/19 06:44:24;;;;;;;8.80;6.17;;;;;;;25.52;60.49;98618.41;4129079;28;20674;-92
2022/05/19 06:46:28;;;;;;;6.57;4.40;;;;;;;25.75;59.09;98620.00;4131638;28;20726;-92
2022/05/19 06:48:31;;;;;;;6.90;4.13;;;;;;;26.01;59.68;98616.81;4107680;28;21527;-92
2022/05/19 06:50:35;;;;;;;5.10;3.80;;;;;;;26.30;55.72;98620.28;4127140;28;20674;-92
2022/05/19 06:53:01;;;;;;;7.10;4.40;;;;;;;26.59;57.83;98623.66;4127175;28;20733;-92
2022/05/19 06:55:05;;;;;;;4.50;4.10;;;;;;;26.83;57.43;98624.09;4131929;28;20661;-91
2022/05/19 06:57:10;;;;;;;4.70;4.00;;;;;;;27.03;53.92;98621.63;4105919;28;20759;-91
2022/05/19 06:59:15;;;;;;;8.00;4.07;;;;;;;27.21;55.99;98618.28;4125123;28;20734;-91
2022/05/19 07:01:19;;;;;;;4.03;3.50;;;;;;;27.39;55.03;98626.63;4113071;28;20763;-90
2022/05/19 07:03:22;;;;;;;4.00;3.60;;;;;;;27.59;55.53;98627.63;4123927;28;21194;-91
2022/05/19 07:05:28;;;;;;;3.80;3.50;;;;;;;27.72;53.27;98627.69;4126892;28;20630;-91
2022/05/19 07:07:32;;;;;;;6.50;3.70;;;;;;;27.87;55.21;98628.38;4147183;28;20647;-91
2022/05/19 07:09:36;;;;;;;4.53;3.50;;;;;;;27.94;54.09;98627.38;4127669;28;21270;-91
2022/05/19 07:11:39;;;;;;;4.93;3.50;;;;;;;28.03;54.03;98632.38;4131007;28;20635;-91
2022/05/19 07:13:47;;;;;;;4.10;3.70;;;;;;;27.96;53.30;98625.31;4120045;28;20623;-91
2022/05/19 07:15:50;;;;;;;4.40;4.00;;;;;;;27.99;55.15;98630.28;4121839;28;20764;-91
2022/05/19 07:17:54;;;;;;;4.07;3.67;;;;;;;28.16;55.39;98623.56;4143729;28;20721;-91
2022/05/19 07:22:22;;;;;;;6.27;3.80;;;;;;;28.58;55.08;98621.41;4117698;28;20642;-91
2022/05/19 07:24:25;;;;;;;4.03;3.63;;;;;;;28.78;53.55;98619.63;4109143;28;21170;-91
2022/05/19 07:26:28;;;;;;;3.90;3.50;;;;;;;28.89;53.44;98621.69;4108471;28;20663;-90
2022/05/19 07:28:32;;;;;;;4.20;3.80;;;;;;;28.92;51.66;98619.41;4131930;28;21122;-91
2022/05/19 07:30:37;;;;;;;6.20;3.70;;;;;;;29.02;53.11;98631.41;4127464;28;20638;-91
2022/05/19 07:32:41;;;;;;;9.10;4.00;;;;;;;29.12;51.04;98626.44;4141723;28;20636;-90
2022/05/19 07:34:45;;;;;;;5.60;3.90;;;;;;;29.22;51.33;98618.78;4128746;28;20693;-91
2022/05/19 07:36:48;;;;;;;4.67;3.73;;;;;;;29.27;53.94;98615.50;4131755;28;20660;-90
2022/05/19 07:38:56;;;;;;;4.90;4.07;;;;;;;29.22;51.42;98609.88;4116213;28;20632;-91
2022/05/19 07:40:59;;;;;;;4.00;3.60;;;;;;;29.27;51.86;98608.25;4131159;28;20625;-91
2022/05/19 07:45:19;;;;;;;4.53;4.10;;;;;;;29.45;50.42;98611.09;4129390;28;21181;-90
2022/05/19 07:47:33;;;;;;;6.10;4.10;;;;;;;29.53;51.36;98606.34;4133256;28;20670;-91
2022/05/19 07:49:39;;;;;;;4.23;3.60;;;;;;;29.60;51.55;98609.84;4117807;28;20635;-91
2022/05/19 07:51:44;;;;;;;4.23;3.53;;;;;;;29.69;53.34;98608.56;4112436;28;21087;-90
2022/05/19 07:53:47;;;;;;;3.70;3.40;;;;;;;29.84;51.12;98608.34;4110369;28;20651;-91
2022/05/19 07:55:50;;;;;;;13.23;10.33;;;;;;;29.91;52.78;98615.38;4110032;28;20693;-90
2022/05/19 07:57:53;;;;;;;7.63;4.30;;;;;;;29.94;50.62;98615.75;4125803;28;20635;-90
2022/05/19 07:59:59;;;;;;;4.73;4.27;;;;;;;30.04;50.20;98620.69;4124518;28;20739;-90
2022/05/19 08:02:02;;;;;;;5.57;4.00;;;;;;;30.15;52.21;98610.06;4109914;28;20647;-91
2022/05/19 08:04:09;;;;;;;4.57;3.57;;;;;;;30.22;51.23;98610.03;4123575;28;21650;-91
2022/05/19 08:06:12;;;;;;;4.77;4.07;;;;;;;30.25;54.52;98610.44;4124810;28;21035;-91
2022/05/19 08:08:16;;;;;;;6.70;4.00;;;;;;;30.19;51.47;98603.22;4124630;28;20647;-92
2022/05/19 08:10:21;;;;;;;4.53;3.87;;;;;;;30.22;52.68;98607.34;4121283;28;20631;-91
2022/05/19 08:17:10;;;;;;;5.47;3.80;;;;;;;30.42;52.76;98607.06;4130260;28;20666;-91
2022/05/19 08:19:14;;;;;;;6.40;3.83;;;;;;;30.47;50.94;98606.41;4126137;28;20647;-91
2022/05/19 08:21:18;;;;;;;5.13;4.00;;;;;;;30.48;50.38;98608.06;4107806;28;20648;-91
2022/05/19 08:23:23;;;;;;;6.33;4.10;;;;;;;30.56;51.22;98610.50;4128480;28;21169;-92
2022/05/19 08:25:28;;;;;;;5.03;4.30;;;;;;;30.62;51.55;98612.31;4115448;28;20712;-92
2022/05/19 08:27:31;;;;;;;5.20;4.40;;;;;;;30.67;50.13;98610.63;4131337;28;20631;-91
2022/05/19 08:29:35;;;;;;;4.87;4.40;;;;;;;30.67;52.06;98612.47;4108053;28;20629;-92
2022/05/19 08:31:40;;;;;;;4.23;3.83;;;;;;;30.71;49.25;98606.44;4110426;28;20732;-91
2022/05/19 08:33:45;;;;;;;5.03;4.40;;;;;;;30.64;51.39;98611.06;4108335;28;21050;-92
2022/05/19 08:35:55;;;;;;;8.73;3.90;;;;;;;30.77;50.23;98607.44;4107794;28;20792;-90
2022/05/19 08:37:58;;;;;;;4.73;4.20;;;;;;;30.74;51.46;98611.41;4129191;28;21136;-91
2022/05/19 08:40:08;;;;;;;6.17;4.30;;;;;;;30.86;51.77;98611.53;4123035;28;20673;-91
2022/05/19 08:42:12;;;;;;;4.40;4.00;;;;;;;30.77;50.66;98607.44;4111498;28;20648;-92
2022/05/19 08:44:19;;;;;;;4.50;4.10;;;;;;;30.70;51.61;98606.66;4109905;28;21218;-91
2022/05/19 08:46:26;;;;;;;5.13;4.67;;;;;;;30.79;52.58;98600.78;4121284;28;20647;-92
2022/05/19 08:48:35;;;;;;;4.70;4.30;;;;;;;30.82;50.99;98603.03;4127219;28;21096;-92
2022/05/19 08:50:45;;;;;;;5.10;4.43;;;;;;;30.82;51.06;98607.59;4118895;28;20638;-91
2022/05/19 08:52:51;;;;;;;5.03;4.63;;;;;;;30.85;51.30;98607.16;4107011;28;20644;-95
2022/05/19 08:54:57;;;;;;;5.17;4.57;;;;;;;30.87;52.00;98608.66;4115083;28;20646;-95
2022/05/19 08:57:23;;;;;;;5.10;4.47;;;;;;;30.80;49.91;98607.00;4115279;28;20663;-95
2022/05/19 08:59:53;;;;;;;5.00;4.50;;;;;;;30.85;51.01;98601.78;4133825;28;21158;-96
2022/05/19 09:02:23;;;;;;;4.70;4.30;;;;;;;30.78;50.95;98599.16;4128303;28;20682;-95
2022/05/19 09:05:20;;;;;;;5.87;4.70;;;;;;;30.79;51.39;98605.34;4136840;28;20615;-95
2022/05/19 09:08:06;;;;;;;7.80;4.77;;;;;;;30.81;50.95;98600.56;4122175;28;20602;-94
2022/05/19 09:10:41;;;;;;;4.90;4.37;;;;;;;30.82;52.83;98602.22;4111712;28;20620;-94
2022/05/19 09:13:21;;;;;;;4.83;4.43;;;;;;;30.91;53.80;98609.84;4137522;28;20614;-95
2022/05/19 09:15:47;;;;;;;6.80;4.57;;;;;;;30.92;50.26;98604.22;4118797;28;20715;-95
2022/05/19 09:18:15;;;;;;;4.80;4.40;;;;;;;30.75;51.11;98604.16;4126997;28;20667;-93
2022/05/19 09:20:42;;;;;;;4.80;4.37;;;;;;;30.81;53.97;98604.09;4118643;28;20631;-92
2022/05/19 09:23:07;;;;;;;5.00;4.50;;;;;;;30.90;52.33;98605.50;4140319;28;21332;-92
2022/05/19 09:25:35;;;;;;;5.00;4.50;;;;;;;30.99;53.36;98602.31;4128779;28;20616;-96
2022/05/19 09:28:01;;;;;;;6.10;4.23;;;;;;;31.08;53.42;98601.00;4133631;28;20690;-95
2022/05/19 09:30:34;;;;;;;5.50;4.20;;;;;;;31.16;52.85;98603.41;4131847;28;20722;-95
2022/05/19 09:33:11;;;;;;;4.80;4.33;;;;;;;31.27;53.65;98602.66;4144813;28;20651;-96
2022/05/19 09:39:21;;;;;;;5.00;4.50;;;;;;;30.90;53.66;98593.88;4162661;28;20619;-95
2022/05/19 09:42:13;;;;;;;7.70;5.93;;;;;;;30.90;52.17;98593.88;4135271;28;20622;-95
2022/05/19 09:44:45;;;;;;;4.60;4.20;;;;;;;31.00;50.38;98590.50;4126181;28;20719;-94
2022/05/19 09:47:20;;;;;;;4.60;4.20;;;;;;;30.92;49.63;98592.63;4126260;28;20628;-95
2022/05/19 09:49:51;;;;;;;5.03;4.63;;;;;;;30.80;51.67;98583.56;4132179;28;21066;-92
2022/05/19 09:52:19;;;;;;;4.57;4.17;;;;;;;30.71;54.96;98589.44;4119968;28;20635;-92
2022/05/19 09:54:46;;;;;;;5.97;4.53;;;;;;;30.75;50.64;98591.50;4120046;28;21278;-92
2022/05/19 09:57:11;;;;;;;5.13;4.63;;;;;;;30.80;50.68;98596.22;4143928;28;20727;-92
2022/05/19 09:59:38;;;;;;;5.03;4.47;;;;;;;30.82;51.45;98586.84;4116594;28;21335;-92
2022/05/19 10:02:06;;;;;;;5.40;4.40;;;;;;;30.87;51.29;98588.91;4113190;28;20632;-92
2022/05/19 10:04:37;;;;;;;4.57;4.20;;;;;;;30.87;50.78;98588.91;4119203;28;20639;-92
2022/05/19 10:07:08;;;;;;;5.00;4.50;;;;;;;30.93;51.40;98589.72;4122684;28;20624;-92
2022/05/19 10:09:34;;;;;;;5.03;4.50;;;;;;;30.92;50.14;98582.66;4121602;28;20624;-92
2022/05/19 10:12:08;;;;;;;5.00;4.20;;;;;;;30.98;52.21;98581.78;4119357;28;21183;-92
2022/05/19 10:14:32;;;;;;;7.40;4.57;;;;;;;31.07;53.14;98585.03;4134294;28;20746;-92